sensor_id;sensor_type;location;lat;lon;timestamp;P1;durP1;ratioP1;P2;durP2;ratioP2
31464;SDS011;18089;47.428;15.006;2023-03-01T00:01:40;39.13;;;26.97;;
31464;SDS011;18089;47.428;15.006;2023-03-01T00:04:12;39.60;;;28.47;;
31464;SDS011;18089;47.428;15.006;2023-03-01T00:06:46;45.47;;;31.47;;
31464;SDS011;18089;47.428;15.006;2023-03-01T00:09:18;59.80;;;34.37;;
31464;SDS011;18089;47.428;15.006;2023-03-01T00:11:50;62.13;;;38.27;;
31464;SDS011;18089;47.428;15.006;2023-03-01T00:14:22;71.43;;;40.07;;
31464;SDS011;18089;47.428;15.006;2023-03-01T00:16:54;66.70;;;39.23;;
31464;SDS011;18089;47.428;15.006;2023-03-01T00:19:26;68.23;;;40.80;;
31464;SDS011;18089;47.428;15.006;2023-03-01T00:21:59;69.73;;;39.50;;
31464;SDS011;18089;47.428;15.006;2023-03-01T00:24:31;70.60;;;40.13;;
31464;SDS011;18089;47.428;15.006;2023-03-01T00:27:03;68.97;;;40.50;;
31464;SDS011;18089;47.428;15.006;2023-03-01T00:29:35;69.97;;;38.70;;
31464;SDS011;18089;47.428;15.006;2023-03-01T00:32:07;62.20;;;36.93;;
31464;SDS011;18089;47.428;15.006;2023-03-01T00:34:39;52.90;;;32.20;;
31464;SDS011;18089;47.428;15.006;2023-03-01T00:37:13;55.03;;;32.27;;
31464;SDS011;18089;47.428;15.006;2023-03-01T00:39:44;47.03;;;32.40;;
31464;SDS011;18089;47.428;15.006;2023-03-01T00:42:16;54.10;;;33.50;;
31464;SDS011;18089;47.428;15.006;2023-03-01T00:44:48;47.20;;;31.53;;
31464;SDS011;18089;47.428;15.006;2023-03-01T00:47:20;52.30;;;31.73;;
31464;SDS011;18089;47.428;15.006;2023-03-01T00:49:52;48.83;;;29.73;;
31464;SDS011;18089;47.428;15.006;2023-03-01T00:52:26;41.73;;;28.60;;
31464;SDS011;18089;47.428;15.006;2023-03-01T00:54:58;45.27;;;30.20;;
31464;SDS011;18089;47.428;15.006;2023-03-01T00:57:30;49.10;;;30.80;;
31464;SDS011;18089;47.428;15.006;2023-03-01T01:00:02;46.07;;;29.87;;
31464;SDS011;18089;47.428;15.006;2023-03-01T01:02:35;44.93;;;30.57;;
31464;SDS011;18089;47.428;15.006;2023-03-01T01:05:07;46.60;;;30.33;;
31464;SDS011;18089;47.428;15.006;2023-03-01T01:07:41;44.53;;;28.97;;
31464;SDS011;18089;47.428;15.006;2023-03-01T01:10:13;40.00;;;29.23;;
31464;SDS011;18089;47.428;15.006;2023-03-01T01:12:47;41.93;;;26.73;;
31464;SDS011;18089;47.428;15.006;2023-03-01T01:15:19;37.80;;;27.00;;
31464;SDS011;18089;47.428;15.006;2023-03-01T01:17:51;37.87;;;26.77;;
31464;SDS011;18089;47.428;15.006;2023-03-01T01:20:23;36.93;;;27.07;;
31464;SDS011;18089;47.428;15.006;2023-03-01T01:22:56;39.63;;;27.87;;
31464;SDS011;18089;47.428;15.006;2023-03-01T01:25:28;41.40;;;27.60;;
31464;SDS011;18089;47.428;15.006;2023-03-01T01:28:00;38.97;;;27.57;;
31464;SDS011;18089;47.428;15.006;2023-03-01T01:30:32;35.97;;;26.37;;
31464;SDS011;18089;47.428;15.006;2023-03-01T01:33:04;37.40;;;26.67;;
31464;SDS011;18089;47.428;15.006;2023-03-01T01:35:36;37.03;;;25.93;;
31464;SDS011;18089;47.428;15.006;2023-03-01T01:38:09;34.77;;;25.63;;
31464;SDS011;18089;47.428;15.006;2023-03-01T01:40:44;41.33;;;26.50;;
31464;SDS011;18089;47.428;15.006;2023-03-01T01:43:18;38.20;;;27.00;;
31464;SDS011;18089;47.428;15.006;2023-03-01T01:45:52;35.37;;;26.10;;
31464;SDS011;18089;47.428;15.006;2023-03-01T01:48:28;39.47;;;25.67;;
31464;SDS011;18089;47.428;15.006;2023-03-01T01:51:13;38.73;;;25.93;;
31464;SDS011;18089;47.428;15.006;2023-03-01T01:53:51;34.73;;;27.20;;
31464;SDS011;18089;47.428;15.006;2023-03-01T01:56:26;38.00;;;27.40;;
31464;SDS011;18089;47.428;15.006;2023-03-01T01:59:00;35.83;;;27.13;;
31464;SDS011;18089;47.428;15.006;2023-03-01T02:01:33;36.93;;;26.43;;
31464;SDS011;18089;47.428;15.006;2023-03-01T02:04:05;41.63;;;29.63;;
31464;SDS011;18089;47.428;15.006;2023-03-01T02:06:38;44.30;;;28.47;;
31464;SDS011;18089;47.428;15.006;2023-03-01T02:09:14;40.03;;;29.53;;
31464;SDS011;18089;47.428;15.006;2023-03-01T02:11:47;42.20;;;29.17;;
31464;SDS011;18089;47.428;15.006;2023-03-01T02:14:20;45.10;;;29.27;;
31464;SDS011;18089;47.428;15.006;2023-03-01T02:16:52;44.67;;;29.20;;
31464;SDS011;18089;47.428;15.006;2023-03-01T02:19:27;42.03;;;29.20;;
31464;SDS011;18089;47.428;15.006;2023-03-01T02:22:06;39.40;;;28.67;;
31464;SDS011;18089;47.428;15.006;2023-03-01T02:24:47;48.23;;;28.90;;
31464;SDS011;18089;47.428;15.006;2023-03-01T02:27:28;41.93;;;28.23;;
31464;SDS011;18089;47.428;15.006;2023-03-01T02:30:05;43.03;;;28.53;;
31464;SDS011;18089;47.428;15.006;2023-03-01T02:32:38;38.87;;;28.17;;
31464;SDS011;18089;47.428;15.006;2023-03-01T02:35:12;42.70;;;27.90;;
31464;SDS011;18089;47.428;15.006;2023-03-01T02:37:45;39.33;;;27.77;;
31464;SDS011;18089;47.428;15.006;2023-03-01T02:40:18;40.67;;;27.07;;
31464;SDS011;18089;47.428;15.006;2023-03-01T02:42:53;38.77;;;27.53;;
31464;SDS011;18089;47.428;15.006;2023-03-01T02:45:28;38.27;;;26.57;;
31464;SDS011;18089;47.428;15.006;2023-03-01T02:48:00;36.10;;;26.10;;
31464;SDS011;18089;47.428;15.006;2023-03-01T02:50:39;37.23;;;26.53;;
31464;SDS011;18089;47.428;15.006;2023-03-01T02:53:25;39.97;;;26.50;;
31464;SDS011;18089;47.428;15.006;2023-03-01T02:56:00;38.97;;;28.40;;
31464;SDS011;18089;47.428;15.006;2023-03-01T02:58:32;38.00;;;27.80;;
31464;SDS011;18089;47.428;15.006;2023-03-01T03:01:16;35.33;;;27.17;;
31464;SDS011;18089;47.428;15.006;2023-03-01T03:03:49;40.83;;;28.03;;
31464;SDS011;18089;47.428;15.006;2023-03-01T03:06:21;40.37;;;28.17;;
31464;SDS011;18089;47.428;15.006;2023-03-01T03:08:53;42.73;;;28.43;;
31464;SDS011;18089;47.428;15.006;2023-03-01T03:11:25;41.97;;;28.57;;
31464;SDS011;18089;47.428;15.006;2023-03-01T03:13:57;38.37;;;27.60;;
31464;SDS011;18089;47.428;15.006;2023-03-01T03:16:31;39.63;;;28.07;;
31464;SDS011;18089;47.428;15.006;2023-03-01T03:19:03;40.37;;;27.63;;
31464;SDS011;18089;47.428;15.006;2023-03-01T03:21:36;40.77;;;28.53;;
31464;SDS011;18089;47.428;15.006;2023-03-01T03:24:08;41.83;;;27.97;;
31464;SDS011;18089;47.428;15.006;2023-03-01T03:26:40;43.37;;;28.27;;
31464;SDS011;18089;47.428;15.006;2023-03-01T03:29:12;43.70;;;27.10;;
31464;SDS011;18089;47.428;15.006;2023-03-01T03:31:45;40.90;;;29.07;;
31464;SDS011;18089;47.428;15.006;2023-03-01T03:34:17;49.63;;;30.60;;
31464;SDS011;18089;47.428;15.006;2023-03-01T03:36:52;42.07;;;28.37;;
31464;SDS011;18089;47.428;15.006;2023-03-01T03:39:26;40.63;;;28.43;;
31464;SDS011;18089;47.428;15.006;2023-03-01T03:42:04;42.00;;;28.73;;
31464;SDS011;18089;47.428;15.006;2023-03-01T03:44:36;40.03;;;27.80;;
31464;SDS011;18089;47.428;15.006;2023-03-01T03:47:10;41.17;;;28.57;;
31464;SDS011;18089;47.428;15.006;2023-03-01T03:49:42;47.67;;;31.20;;
31464;SDS011;18089;47.428;15.006;2023-03-01T03:52:14;44.60;;;30.13;;
31464;SDS011;18089;47.428;15.006;2023-03-01T03:54:46;45.60;;;29.40;;
31464;SDS011;18089;47.428;15.006;2023-03-01T03:57:18;41.93;;;29.00;;
31464;SDS011;18089;47.428;15.006;2023-03-01T03:59:51;58.23;;;33.87;;
31464;SDS011;18089;47.428;15.006;2023-03-01T04:02:24;50.83;;;32.07;;
31464;SDS011;18089;47.428;15.006;2023-03-01T04:04:56;43.40;;;30.07;;
31464;SDS011;18089;47.428;15.006;2023-03-01T04:07:28;49.40;;;31.77;;
31464;SDS011;18089;47.428;15.006;2023-03-01T04:10:00;47.63;;;30.87;;
31464;SDS011;18089;47.428;15.006;2023-03-01T04:12:33;46.20;;;29.50;;
31464;SDS011;18089;47.428;15.006;2023-03-01T04:15:05;43.73;;;31.07;;
31464;SDS011;18089;47.428;15.006;2023-03-01T04:17:46;45.17;;;30.57;;
31464;SDS011;18089;47.428;15.006;2023-03-01T04:20:18;43.73;;;29.37;;
31464;SDS011;18089;47.428;15.006;2023-03-01T04:22:56;42.87;;;28.53;;
31464;SDS011;18089;47.428;15.006;2023-03-01T04:25:30;41.57;;;28.33;;
31464;SDS011;18089;47.428;15.006;2023-03-01T04:28:02;37.73;;;27.90;;
31464;SDS011;18089;47.428;15.006;2023-03-01T04:30:34;40.07;;;28.10;;
31464;SDS011;18089;47.428;15.006;2023-03-01T04:33:08;42.87;;;28.67;;
31464;SDS011;18089;47.428;15.006;2023-03-01T04:35:41;41.63;;;28.77;;
31464;SDS011;18089;47.428;15.006;2023-03-01T04:38:13;40.90;;;27.27;;
31464;SDS011;18089;47.428;15.006;2023-03-01T04:40:45;41.07;;;28.63;;
31464;SDS011;18089;47.428;15.006;2023-03-01T04:43:17;40.47;;;29.07;;
31464;SDS011;18089;47.428;15.006;2023-03-01T04:45:49;48.20;;;30.13;;
31464;SDS011;18089;47.428;15.006;2023-03-01T04:48:23;41.63;;;28.80;;
31464;SDS011;18089;47.428;15.006;2023-03-01T04:50:55;47.63;;;30.57;;
31464;SDS011;18089;47.428;15.006;2023-03-01T04:53:27;40.67;;;30.13;;
31464;SDS011;18089;47.428;15.006;2023-03-01T04:55:59;48.57;;;31.03;;
31464;SDS011;18089;47.428;15.006;2023-03-01T04:58:31;46.53;;;29.67;;
31464;SDS011;18089;47.428;15.006;2023-03-01T05:01:08;45.20;;;30.07;;
31464;SDS011;18089;47.428;15.006;2023-03-01T05:03:46;42.57;;;30.43;;
31464;SDS011;18089;47.428;15.006;2023-03-01T05:06:19;46.13;;;29.97;;
31464;SDS011;18089;47.428;15.006;2023-03-01T05:08:51;45.37;;;29.17;;
31464;SDS011;18089;47.428;15.006;2023-03-01T05:11:23;39.57;;;28.90;;
31464;SDS011;18089;47.428;15.006;2023-03-01T05:13:55;44.43;;;30.23;;
31464;SDS011;18089;47.428;15.006;2023-03-01T05:16:27;47.17;;;28.60;;
31464;SDS011;18089;47.428;15.006;2023-03-01T05:19:02;40.47;;;28.40;;
31464;SDS011;18089;47.428;15.006;2023-03-01T05:21:41;50.83;;;29.80;;
31464;SDS011;18089;47.428;15.006;2023-03-01T05:24:28;46.13;;;29.13;;
31464;SDS011;18089;47.428;15.006;2023-03-01T05:27:01;44.13;;;28.87;;
31464;SDS011;18089;47.428;15.006;2023-03-01T05:29:33;46.00;;;29.90;;
31464;SDS011;18089;47.428;15.006;2023-03-01T05:32:06;43.80;;;29.03;;
31464;SDS011;18089;47.428;15.006;2023-03-01T05:34:40;47.17;;;29.53;;
31464;SDS011;18089;47.428;15.006;2023-03-01T05:37:12;43.13;;;29.43;;
31464;SDS011;18089;47.428;15.006;2023-03-01T05:39:44;48.03;;;32.07;;
31464;SDS011;18089;47.428;15.006;2023-03-01T05:42:16;47.17;;;29.57;;
31464;SDS011;18089;47.428;15.006;2023-03-01T05:44:48;42.47;;;29.67;;
31464;SDS011;18089;47.428;15.006;2023-03-01T05:47:20;42.17;;;28.77;;
31464;SDS011;18089;47.428;15.006;2023-03-01T05:49:54;45.17;;;30.10;;
31464;SDS011;18089;47.428;15.006;2023-03-01T05:52:26;42.40;;;28.77;;
31464;SDS011;18089;47.428;15.006;2023-03-01T05:54:58;44.63;;;30.87;;
31464;SDS011;18089;47.428;15.006;2023-03-01T05:57:30;45.10;;;28.93;;
31464;SDS011;18089;47.428;15.006;2023-03-01T06:00:02;43.83;;;29.17;;
31464;SDS011;18089;47.428;15.006;2023-03-01T06:02:36;44.43;;;28.43;;
31464;SDS011;18089;47.428;15.006;2023-03-01T06:05:10;44.33;;;30.53;;
31464;SDS011;18089;47.428;15.006;2023-03-01T06:07:43;51.70;;;35.27;;
31464;SDS011;18089;47.428;15.006;2023-03-01T06:10:15;43.70;;;29.83;;
31464;SDS011;18089;47.428;15.006;2023-03-01T06:12:48;45.23;;;30.40;;
31464;SDS011;18089;47.428;15.006;2023-03-01T06:15:20;45.17;;;30.77;;
31464;SDS011;18089;47.428;15.006;2023-03-01T06:17:53;40.07;;;28.37;;
31464;SDS011;18089;47.428;15.006;2023-03-01T06:20:28;41.37;;;27.67;;
31464;SDS011;18089;47.428;15.006;2023-03-01T06:23:00;38.03;;;26.97;;
31464;SDS011;18089;47.428;15.006;2023-03-01T06:25:32;41.77;;;28.27;;
31464;SDS011;18089;47.428;15.006;2023-03-01T06:28:04;42.40;;;27.90;;
31464;SDS011;18089;47.428;15.006;2023-03-01T06:30:36;47.73;;;29.00;;
31464;SDS011;18089;47.428;15.006;2023-03-01T06:33:08;39.50;;;26.33;;
31464;SDS011;18089;47.428;15.006;2023-03-01T06:35:42;43.47;;;28.20;;
31464;SDS011;18089;47.428;15.006;2023-03-01T06:38:14;44.50;;;27.87;;
31464;SDS011;18089;47.428;15.006;2023-03-01T06:40:51;39.73;;;27.93;;
31464;SDS011;18089;47.428;15.006;2023-03-01T06:43:24;40.17;;;26.73;;
31464;SDS011;18089;47.428;15.006;2023-03-01T06:45:56;41.63;;;27.87;;
31464;SDS011;18089;47.428;15.006;2023-03-01T06:48:28;40.73;;;27.70;;
31464;SDS011;18089;47.428;15.006;2023-03-01T06:51:01;43.27;;;29.20;;
31464;SDS011;18089;47.428;15.006;2023-03-01T06:53:33;43.83;;;28.13;;
31464;SDS011;18089;47.428;15.006;2023-03-01T06:56:05;37.50;;;26.20;;
31464;SDS011;18089;47.428;15.006;2023-03-01T06:58:37;41.20;;;26.53;;
31464;SDS011;18089;47.428;15.006;2023-03-01T07:01:09;40.73;;;26.60;;
31464;SDS011;18089;47.428;15.006;2023-03-01T07:03:41;39.13;;;27.17;;
31464;SDS011;18089;47.428;15.006;2023-03-01T07:06:15;38.27;;;27.40;;
31464;SDS011;18089;47.428;15.006;2023-03-01T07:08:47;50.60;;;26.73;;
31464;SDS011;18089;47.428;15.006;2023-03-01T07:11:19;38.27;;;27.07;;
31464;SDS011;18089;47.428;15.006;2023-03-01T07:13:52;41.63;;;26.80;;
31464;SDS011;18089;47.428;15.006;2023-03-01T07:16:25;37.97;;;25.83;;
31464;SDS011;18089;47.428;15.006;2023-03-01T07:18:57;41.17;;;26.10;;
31464;SDS011;18089;47.428;15.006;2023-03-01T07:21:30;43.87;;;27.50;;
31464;SDS011;18089;47.428;15.006;2023-03-01T07:24:02;40.53;;;28.17;;
31464;SDS011;18089;47.428;15.006;2023-03-01T07:26:35;38.67;;;26.50;;
31464;SDS011;18089;47.428;15.006;2023-03-01T07:29:07;42.93;;;27.63;;
31464;SDS011;18089;47.428;15.006;2023-03-01T07:31:41;41.60;;;28.23;;
31464;SDS011;18089;47.428;15.006;2023-03-01T07:34:13;42.07;;;27.30;;
31464;SDS011;18089;47.428;15.006;2023-03-01T07:36:46;44.37;;;26.53;;
31464;SDS011;18089;47.428;15.006;2023-03-01T07:39:18;41.30;;;27.40;;
31464;SDS011;18089;47.428;15.006;2023-03-01T07:41:50;44.93;;;27.93;;
31464;SDS011;18089;47.428;15.006;2023-03-01T07:44:22;44.17;;;28.87;;
31464;SDS011;18089;47.428;15.006;2023-03-01T07:46:54;43.60;;;28.63;;
31464;SDS011;18089;47.428;15.006;2023-03-01T07:49:28;48.83;;;30.10;;
31464;SDS011;18089;47.428;15.006;2023-03-01T07:52:01;41.53;;;27.77;;
31464;SDS011;18089;47.428;15.006;2023-03-01T07:54:33;41.93;;;27.70;;
31464;SDS011;18089;47.428;15.006;2023-03-01T07:57:05;40.43;;;27.37;;
31464;SDS011;18089;47.428;15.006;2023-03-01T07:59:37;43.83;;;26.97;;
31464;SDS011;18089;47.428;15.006;2023-03-01T08:02:09;43.80;;;27.63;;
31464;SDS011;18089;47.428;15.006;2023-03-01T08:04:41;44.73;;;27.47;;
31464;SDS011;18089;47.428;15.006;2023-03-01T08:07:15;39.03;;;25.63;;
31464;SDS011;18089;47.428;15.006;2023-03-01T08:09:47;41.57;;;25.37;;
31464;SDS011;18089;47.428;15.006;2023-03-01T08:12:19;37.33;;;25.27;;
31464;SDS011;18089;47.428;15.006;2023-03-01T08:14:51;39.47;;;25.67;;
31464;SDS011;18089;47.428;15.006;2023-03-01T08:17:23;41.77;;;26.23;;
31464;SDS011;18089;47.428;15.006;2023-03-01T08:19:55;39.50;;;27.60;;
31464;SDS011;18089;47.428;15.006;2023-03-01T08:22:28;42.10;;;27.50;;
31464;SDS011;18089;47.428;15.006;2023-03-01T08:25:00;41.63;;;26.30;;
31464;SDS011;18089;47.428;15.006;2023-03-01T08:27:32;38.53;;;25.63;;
31464;SDS011;18089;47.428;15.006;2023-03-01T08:30:05;39.17;;;26.33;;
31464;SDS011;18089;47.428;15.006;2023-03-01T08:32:38;46.40;;;27.53;;
31464;SDS011;18089;47.428;15.006;2023-03-01T08:35:10;42.07;;;26.67;;
31464;SDS011;18089;47.428;15.006;2023-03-01T08:37:44;47.73;;;31.47;;
31464;SDS011;18089;47.428;15.006;2023-03-01T08:40:16;41.60;;;29.03;;
31464;SDS011;18089;47.428;15.006;2023-03-01T08:42:48;44.47;;;28.40;;
31464;SDS011;18089;47.428;15.006;2023-03-01T08:45:20;40.67;;;27.23;;
31464;SDS011;18089;47.428;15.006;2023-03-01T08:47:52;44.33;;;26.50;;
31464;SDS011;18089;47.428;15.006;2023-03-01T08:50:24;41.93;;;26.77;;
31464;SDS011;18089;47.428;15.006;2023-03-01T08:52:57;34.80;;;25.63;;
31464;SDS011;18089;47.428;15.006;2023-03-01T08:55:29;40.53;;;26.93;;
31464;SDS011;18089;47.428;15.006;2023-03-01T08:58:01;39.70;;;26.57;;
31464;SDS011;18089;47.428;15.006;2023-03-01T09:00:33;38.00;;;25.90;;
31464;SDS011;18089;47.428;15.006;2023-03-01T09:03:05;39.67;;;25.00;;
31464;SDS011;18089;47.428;15.006;2023-03-01T09:05:37;35.40;;;25.43;;
31464;SDS011;18089;47.428;15.006;2023-03-01T09:08:11;38.47;;;25.90;;
31464;SDS011;18089;47.428;15.006;2023-03-01T09:10:43;36.50;;;23.83;;
31464;SDS011;18089;47.428;15.006;2023-03-01T09:13:15;32.47;;;23.83;;
31464;SDS011;18089;47.428;15.006;2023-03-01T09:15:47;40.23;;;25.33;;
31464;SDS011;18089;47.428;15.006;2023-03-01T09:18:19;36.57;;;24.47;;
31464;SDS011;18089;47.428;15.006;2023-03-01T09:20:51;38.80;;;24.73;;
31464;SDS011;18089;47.428;15.006;2023-03-01T09:23:26;38.13;;;25.63;;
31464;SDS011;18089;47.428;15.006;2023-03-01T09:25:58;36.97;;;25.27;;
31464;SDS011;18089;47.428;15.006;2023-03-01T09:28:30;38.10;;;24.50;;
31464;SDS011;18089;47.428;15.006;2023-03-01T09:31:02;31.70;;;23.17;;
31464;SDS011;18089;47.428;15.006;2023-03-01T09:33:35;36.93;;;24.70;;
31464;SDS011;18089;47.428;15.006;2023-03-01T09:36:07;33.90;;;23.90;;
31464;SDS011;18089;47.428;15.006;2023-03-01T09:38:43;34.87;;;24.57;;
31464;SDS011;18089;47.428;15.006;2023-03-01T09:41:19;36.67;;;23.53;;
31464;SDS011;18089;47.428;15.006;2023-03-01T09:43:59;33.73;;;22.83;;
31464;SDS011;18089;47.428;15.006;2023-03-01T09:46:36;34.17;;;23.80;;
31464;SDS011;18089;47.428;15.006;2023-03-01T09:49:13;35.23;;;22.83;;
31464;SDS011;18089;47.428;15.006;2023-03-01T09:51:50;30.90;;;22.90;;
31464;SDS011;18089;47.428;15.006;2023-03-01T09:54:28;33.83;;;22.87;;
31464;SDS011;18089;47.428;15.006;2023-03-01T09:57:05;34.17;;;23.00;;
31464;SDS011;18089;47.428;15.006;2023-03-01T09:59:46;33.73;;;22.80;;
31464;SDS011;18089;47.428;15.006;2023-03-01T10:02:41;29.07;;;21.90;;
31464;SDS011;18089;47.428;15.006;2023-03-01T10:05:27;33.40;;;22.30;;
31464;SDS011;18089;47.428;15.006;2023-03-01T10:08:35;34.33;;;22.60;;
31464;SDS011;18089;47.428;15.006;2023-03-01T10:11:20;30.90;;;22.30;;
31464;SDS011;18089;47.428;15.006;2023-03-01T10:13:58;35.00;;;23.40;;
31464;SDS011;18089;47.428;15.006;2023-03-01T10:16:37;33.30;;;23.03;;
31464;SDS011;18089;47.428;15.006;2023-03-01T10:19:12;34.07;;;22.53;;
31464;SDS011;18089;47.428;15.006;2023-03-01T10:21:46;32.73;;;22.40;;
31464;SDS011;18089;47.428;15.006;2023-03-01T10:24:19;37.23;;;23.53;;
31464;SDS011;18089;47.428;15.006;2023-03-01T10:26:55;35.17;;;23.30;;
31464;SDS011;18089;47.428;15.006;2023-03-01T10:29:30;34.17;;;22.63;;
31464;SDS011;18089;47.428;15.006;2023-03-01T10:32:05;29.80;;;21.73;;
31464;SDS011;18089;47.428;15.006;2023-03-01T10:34:37;35.20;;;22.70;;
31464;SDS011;18089;47.428;15.006;2023-03-01T10:37:10;32.13;;;21.53;;
31464;SDS011;18089;47.428;15.006;2023-03-01T10:39:57;39.37;;;23.10;;
31464;SDS011;18089;47.428;15.006;2023-03-01T10:42:32;34.00;;;22.10;;
31464;SDS011;18089;47.428;15.006;2023-03-01T10:45:15;36.00;;;22.07;;
31464;SDS011;18089;47.428;15.006;2023-03-01T10:47:57;31.10;;;21.80;;
31464;SDS011;18089;47.428;15.006;2023-03-01T10:50:35;34.13;;;21.67;;
31464;SDS011;18089;47.428;15.006;2023-03-01T10:53:16;29.97;;;22.17;;
31464;SDS011;18089;47.428;15.006;2023-03-01T10:55:57;34.50;;;22.17;;
31464;SDS011;18089;47.428;15.006;2023-03-01T10:58:32;33.67;;;22.13;;
31464;SDS011;18089;47.428;15.006;2023-03-01T11:01:06;34.90;;;23.53;;
31464;SDS011;18089;47.428;15.006;2023-03-01T11:04:10;35.20;;;22.13;;
31464;SDS011;18089;47.428;15.006;2023-03-01T11:06:44;30.73;;;21.97;;
31464;SDS011;18089;47.428;15.006;2023-03-01T11:09:30;34.97;;;22.70;;
31464;SDS011;18089;47.428;15.006;2023-03-01T11:12:13;33.60;;;22.43;;
31464;SDS011;18089;47.428;15.006;2023-03-01T11:14:47;33.13;;;22.50;;
31464;SDS011;18089;47.428;15.006;2023-03-01T11:17:21;29.63;;;22.17;;
31464;SDS011;18089;47.428;15.006;2023-03-01T11:20:02;33.87;;;22.90;;
31464;SDS011;18089;47.428;15.006;2023-03-01T11:22:55;35.07;;;22.77;;
31464;SDS011;18089;47.428;15.006;2023-03-01T11:25:30;36.03;;;22.13;;
31464;SDS011;18089;47.428;15.006;2023-03-01T11:28:04;27.77;;;21.73;;
31464;SDS011;18089;47.428;15.006;2023-03-01T11:30:40;32.43;;;21.00;;
31464;SDS011;18089;47.428;15.006;2023-03-01T11:33:17;29.80;;;21.53;;
31464;SDS011;18089;47.428;15.006;2023-03-01T11:35:53;36.03;;;22.00;;
31464;SDS011;18089;47.428;15.006;2023-03-01T11:38:29;36.27;;;22.37;;
31464;SDS011;18089;47.428;15.006;2023-03-01T11:41:05;37.03;;;23.17;;
31464;SDS011;18089;47.428;15.006;2023-03-01T11:43:42;34.70;;;21.87;;
31464;SDS011;18089;47.428;15.006;2023-03-01T11:46:33;33.53;;;22.47;;
31464;SDS011;18089;47.428;15.006;2023-03-01T11:49:33;36.83;;;22.30;;
31464;SDS011;18089;47.428;15.006;2023-03-01T11:52:29;34.67;;;22.37;;
31464;SDS011;18089;47.428;15.006;2023-03-01T11:55:12;50.33;;;28.57;;
31464;SDS011;18089;47.428;15.006;2023-03-01T11:57:57;33.00;;;22.30;;
31464;SDS011;18089;47.428;15.006;2023-03-01T12:00:56;35.93;;;22.67;;
31464;SDS011;18089;47.428;15.006;2023-03-01T12:03:44;37.10;;;23.80;;
31464;SDS011;18089;47.428;15.006;2023-03-01T12:06:33;32.93;;;21.93;;
31464;SDS011;18089;47.428;15.006;2023-03-01T12:09:26;31.70;;;22.40;;
31464;SDS011;18089;47.428;15.006;2023-03-01T12:12:21;37.50;;;22.17;;
31464;SDS011;18089;47.428;15.006;2023-03-01T12:15:01;35.17;;;23.07;;
31464;SDS011;18089;47.428;15.006;2023-03-01T12:17:46;34.33;;;21.98;;
31464;SDS011;18089;47.428;15.006;2023-03-01T12:20:36;35.20;;;21.98;;
31464;SDS011;18089;47.428;15.006;2023-03-01T12:23:24;34.00;;;22.13;;
31464;SDS011;18089;47.428;15.006;2023-03-01T12:26:09;35.47;;;20.73;;
31464;SDS011;18089;47.428;15.006;2023-03-01T12:28:50;33.60;;;21.98;;
31464;SDS011;18089;47.428;15.006;2023-03-01T12:31:33;33.70;;;22.00;;
31464;SDS011;18089;47.428;15.006;2023-03-01T12:34:23;32.07;;;20.87;;
31464;SDS011;18089;47.428;15.006;2023-03-01T12:37:21;33.30;;;22.08;;
31464;SDS011;18089;47.428;15.006;2023-03-01T12:40:01;30.80;;;21.92;;
31464;SDS011;18089;47.428;15.006;2023-03-01T12:42:44;32.05;;;20.85;;
31464;SDS011;18089;47.428;15.006;2023-03-01T12:45:44;33.15;;;20.92;;
31464;SDS011;18089;47.428;15.006;2023-03-01T12:48:24;35.03;;;21.63;;
31464;SDS011;18089;47.428;15.006;2023-03-01T12:51:04;30.95;;;21.20;;
31464;SDS011;18089;47.428;15.006;2023-03-01T12:53:43;33.92;;;21.73;;
31464;SDS011;18089;47.428;15.006;2023-03-01T12:56:19;32.83;;;20.98;;
31464;SDS011;18089;47.428;15.006;2023-03-01T12:58:58;35.83;;;21.53;;
31464;SDS011;18089;47.428;15.006;2023-03-01T13:01:35;39.53;;;21.73;;
31464;SDS011;18089;47.428;15.006;2023-03-01T13:07:04;32.07;;;21.33;;
31464;SDS011;18089;47.428;15.006;2023-03-01T13:09:58;30.92;;;20.77;;
31464;SDS011;18089;47.428;15.006;2023-03-01T13:12:50;33.67;;;21.47;;
31464;SDS011;18089;47.428;15.006;2023-03-01T13:15:24;33.40;;;21.03;;
31464;SDS011;18089;47.428;15.006;2023-03-01T13:17:58;27.90;;;21.17;;
31464;SDS011;18089;47.428;15.006;2023-03-01T13:20:32;31.33;;;20.47;;
31464;SDS011;18089;47.428;15.006;2023-03-01T13:23:07;30.65;;;20.95;;
31464;SDS011;18089;47.428;15.006;2023-03-01T13:26:02;29.83;;;20.33;;
31464;SDS011;18089;47.428;15.006;2023-03-01T13:28:48;36.53;;;21.40;;
31464;SDS011;18089;47.428;15.006;2023-03-01T13:34:43;31.10;;;22.30;;
31464;SDS011;18089;47.428;15.006;2023-03-01T13:37:24;34.27;;;22.23;;
31464;SDS011;18089;47.428;15.006;2023-03-01T13:40:03;37.30;;;21.87;;
31464;SDS011;18089;47.428;15.006;2023-03-01T13:42:55;39.17;;;21.93;;
31464;SDS011;18089;47.428;15.006;2023-03-01T13:45:33;39.90;;;23.37;;
31464;SDS011;18089;47.428;15.006;2023-03-01T13:48:09;34.42;;;23.95;;
31464;SDS011;18089;47.428;15.006;2023-03-01T13:50:44;34.70;;;21.17;;
31464;SDS011;18089;47.428;15.006;2023-03-01T13:53:18;31.33;;;21.90;;
31464;SDS011;18089;47.428;15.006;2023-03-01T13:55:52;40.78;;;24.88;;
31464;SDS011;18089;47.428;15.006;2023-03-01T13:58:28;34.97;;;21.23;;
31464;SDS011;18089;47.428;15.006;2023-03-01T14:01:02;37.45;;;20.75;;
31464;SDS011;18089;47.428;15.006;2023-03-01T14:03:40;28.20;;;20.55;;
31464;SDS011;18089;47.428;15.006;2023-03-01T14:06:14;29.65;;;20.65;;
31464;SDS011;18089;47.428;15.006;2023-03-01T14:08:48;32.25;;;20.65;;
31464;SDS011;18089;47.428;15.006;2023-03-01T14:14:28;34.35;;;22.42;;
31464;SDS011;18089;47.428;15.006;2023-03-01T14:17:15;36.97;;;21.70;;
31464;SDS011;18089;47.428;15.006;2023-03-01T14:20:09;31.00;;;21.50;;
31464;SDS011;18089;47.428;15.006;2023-03-01T14:22:44;34.00;;;21.50;;
31464;SDS011;18089;47.428;15.006;2023-03-01T14:25:18;36.05;;;21.92;;
31464;SDS011;18089;47.428;15.006;2023-03-01T14:27:54;29.67;;;20.35;;
31464;SDS011;18089;47.428;15.006;2023-03-01T14:30:31;32.67;;;20.17;;
31464;SDS011;18089;47.428;15.006;2023-03-01T14:33:06;33.20;;;20.42;;
31464;SDS011;18089;47.428;15.006;2023-03-01T14:35:53;30.92;;;20.65;;
31464;SDS011;18089;47.428;15.006;2023-03-01T14:38:29;29.25;;;19.90;;
31464;SDS011;18089;47.428;15.006;2023-03-01T14:41:03;29.33;;;19.25;;
31464;SDS011;18089;47.428;15.006;2023-03-01T14:43:37;25.45;;;18.27;;
31464;SDS011;18089;47.428;15.006;2023-03-01T14:46:18;28.63;;;20.27;;
31464;SDS011;18089;47.428;15.006;2023-03-01T14:48:51;29.25;;;19.65;;
31464;SDS011;18089;47.428;15.006;2023-03-01T14:51:23;29.80;;;20.37;;
31464;SDS011;18089;47.428;15.006;2023-03-01T14:53:56;57.97;;;33.13;;
31464;SDS011;18089;47.428;15.006;2023-03-01T14:56:28;42.08;;;25.90;;
31464;SDS011;18089;47.428;15.006;2023-03-01T14:59:14;34.13;;;22.38;;
31464;SDS011;18089;47.428;15.006;2023-03-01T15:01:48;35.13;;;22.83;;
31464;SDS011;18089;47.428;15.006;2023-03-01T15:04:20;32.40;;;22.33;;
31464;SDS011;18089;47.428;15.006;2023-03-01T15:06:54;35.67;;;19.90;;